createdAt,value
2018-04-14T00:00:33.974Z,100452.98
2018-04-14T00:02:59.858Z,100462.27
2018-04-14T00:05:25.713Z,100459.25
2018-04-14T00:07:51.585Z,100451.51
2018-04-14T00:10:17.483Z,100469.75
2018-04-14T00:12:43.321Z,100478.11
2018-04-14T00:15:09.155Z,100465.24
2018-04-14T00:17:35.050Z,100467.78
2018-04-14T00:20:00.898Z,100464.37
2018-04-14T00:22:26.730Z,100476.28
2018-04-14T00:24:52.570Z,100482.84
2018-04-14T00:27:18.441Z,100485.06
2018-04-14T00:29:44.313Z,100488.09
2018-04-14T00:32:10.164Z,100488.31
2018-04-14T00:34:36.010Z,100497.89
2018-04-14T00:37:01.846Z,100500.12
2018-04-14T00:39:27.667Z,100496.31
2018-04-14T00:41:53.546Z,100509.31
2018-04-14T00:44:19.386Z,100511.11
2018-04-14T00:46:45.254Z,100524.71
2018-04-14T00:49:11.079Z,100521.13
2018-04-14T00:51:36.901Z,100519.38
2018-04-14T00:54:02.754Z,100527.81
2018-04-14T00:56:28.635Z,100539.28
2018-04-14T00:58:55.341Z,100541.47
2018-04-14T01:01:21.186Z,100543.27
2018-04-14T01:03:47.014Z,100549.66
2018-04-14T01:06:12.918Z,100542.03
2018-04-14T01:08:38.774Z,100543.09
2018-04-14T01:11:04.623Z,100543.05
2018-04-14T01:13:30.457Z,100542.86
2018-04-14T01:15:56.848Z,100544.66
2018-04-14T01:18:22.699Z,100551.73
2018-04-14T01:20:48.553Z,100563.19
2018-04-14T01:23:14.402Z,100562.75
2018-04-14T01:25:40.258Z,100570.11
2018-04-14T01:28:06.119Z,100568.00
2018-04-14T01:30:31.960Z,100572.30
2018-04-14T01:32:57.788Z,100561.41
2018-04-14T01:35:23.672Z,100571.47
2018-04-14T01:37:49.495Z,100578.46
2018-04-14T01:40:15.346Z,100569.75
2018-04-14T01:42:41.223Z,100574.17
2018-04-14T01:45:07.062Z,100578.38
2018-04-14T01:47:32.904Z,100579.14
2018-04-14T01:49:58.744Z,100580.48
2018-04-14T01:52:24.650Z,100587.97
2018-04-14T01:54:50.490Z,100587.97
2018-04-14T01:57:16.332Z,100584.35
2018-04-14T01:59:42.176Z,100586.53
2018-04-14T02:02:08.015Z,100600.69
2018-04-14T02:04:33.875Z,100594.53
2018-04-14T02:06:59.730Z,100596.67
2018-04-14T02:09:25.585Z,100604.67
2018-04-14T02:11:51.439Z,100591.03
2018-04-14T02:14:17.327Z,100597.78
2018-04-14T02:16:43.281Z,100606.17
2018-04-14T02:19:09.144Z,100605.30
2018-04-14T02:21:35.009Z,100597.34
2018-04-14T02:24:00.864Z,100601.20
2018-04-14T02:26:26.700Z,100607.41
2018-04-14T02:28:52.534Z,100599.58
2018-04-14T02:31:18.383Z,100600.52
2018-04-14T02:33:44.230Z,100603.98
2018-04-14T02:36:10.098Z,100610.62
2018-04-14T02:38:35.917Z,100610.50
2018-04-14T02:41:01.762Z,100615.43
2018-04-14T02:43:27.596Z,100620.17
2018-04-14T02:45:53.406Z,100622.28
2018-04-14T02:48:19.246Z,100618.78
2018-04-14T02:50:45.097Z,100619.29
2018-04-14T02:53:10.994Z,100627.96
2018-04-14T02:55:36.870Z,100624.38
2018-04-14T02:58:02.726Z,100625.73
2018-04-14T03:00:28.590Z,100629.67
2018-04-14T03:02:54.440Z,100634.09
2018-04-14T03:05:20.293Z,100638.89
2018-04-14T03:07:46.138Z,100637.11
2018-04-14T03:10:12.025Z,100641.16
2018-04-14T03:12:37.865Z,100636.67
2018-04-14T03:15:03.750Z,100644.98
2018-04-14T03:17:29.598Z,100638.94
2018-04-14T03:19:55.442Z,100649.95
2018-04-14T03:22:21.286Z,100652.17
2018-04-14T03:24:47.125Z,100643.09
2018-04-14T03:27:12.979Z,100652.64
2018-04-14T03:29:38.818Z,100652.75
2018-04-14T03:32:04.683Z,100647.58
2018-04-14T03:34:30.529Z,100660.48
2018-04-14T03:36:56.371Z,100655.38
2018-04-14T03:39:22.199Z,100659.67
2018-04-14T03:41:48.043Z,100668.02
2018-04-14T03:44:13.891Z,100658.36
2018-04-14T03:46:39.728Z,100661.02
2018-04-14T03:49:05.556Z,100661.94
2018-04-14T03:51:31.407Z,100669.37
2018-04-14T03:53:57.259Z,100664.56
2018-04-14T03:56:23.099Z,100668.93
2018-04-14T03:58:48.944Z,100669.30
2018-04-14T04:01:14.808Z,100669.19
2018-04-14T04:03:41.403Z,100666.70
2018-04-14T04:06:07.248Z,100668.53
2018-04-14T04:08:33.106Z,100671.66
2018-04-14T04:10:58.995Z,100682.22
2018-04-14T04:13:24.840Z,100674.36
2018-04-14T04:15:50.696Z,100669.08
2018-04-14T04:18:29.068Z,100675.20
2018-04-14T04:21:07.341Z,100678.59
2018-04-14T04:23:45.579Z,100679.17
2018-04-14T04:26:11.430Z,100676.77
2018-04-14T04:28:37.286Z,100677.50
2018-04-14T04:31:03.112Z,100680.38
2018-04-14T04:33:28.989Z,100675.66
2018-04-14T04:35:54.842Z,100684.95
2018-04-14T04:38:21.403Z,100689.36
2018-04-14T04:40:47.255Z,100687.98
2018-04-14T04:43:13.109Z,100690.98
2018-04-14T04:45:38.974Z,100699.16
2018-04-14T04:48:04.835Z,100701.89
2018-04-14T04:50:30.698Z,100705.39
2018-04-14T04:52:56.530Z,100705.80
2018-04-14T04:55:22.413Z,100705.25
2018-04-14T04:57:48.259Z,100702.23
2018-04-14T05:00:14.159Z,100708.28
2018-04-14T05:02:40.055Z,100711.81
2018-04-14T05:05:05.886Z,100713.92
2018-04-14T05:07:31.769Z,100716.41
2018-04-14T05:09:57.594Z,100726.50
2018-04-14T05:12:23.445Z,100734.30
2018-04-14T05:14:49.301Z,100736.13
2018-04-14T05:17:15.157Z,100743.95
2018-04-14T05:19:41.014Z,100743.38
2018-04-14T05:22:07.536Z,100739.45
2018-04-14T05:24:33.418Z,100744.63
2018-04-14T05:26:59.260Z,100743.75
2018-04-14T05:29:25.131Z,100752.42
2018-04-14T05:31:50.971Z,100751.27
2018-04-14T05:34:16.828Z,100764.12
2018-04-14T05:36:42.687Z,100761.88
2018-04-14T05:39:08.538Z,100767.12
2018-04-14T05:41:34.403Z,100763.91
2018-04-14T05:44:00.229Z,100770.52
2018-04-14T05:46:26.080Z,100766.98
2018-04-14T05:48:51.926Z,100777.88
2018-04-14T05:51:17.771Z,100780.84
2018-04-14T05:53:43.600Z,100777.27
2018-04-14T05:56:09.450Z,100777.59
2018-04-14T05:58:35.338Z,100779.75
2018-04-14T06:01:01.173Z,100789.81
2018-04-14T06:03:27.036Z,100786.75
2018-04-14T06:05:52.893Z,100784.45
2018-04-14T06:08:18.764Z,100797.98
2018-04-14T06:10:44.613Z,100791.72
2018-04-14T06:13:11.076Z,100790.37
2018-04-14T06:15:36.982Z,100795.14
2018-04-14T06:18:02.825Z,100797.22
2018-04-14T06:20:28.665Z,100794.19
2018-04-14T06:22:55.055Z,100796.34
2018-04-14T06:25:20.952Z,100799.30
2018-04-14T06:27:46.807Z,100805.36
2018-04-14T06:30:12.710Z,100809.70
2018-04-14T06:32:38.585Z,100813.20
2018-04-14T06:35:04.447Z,100821.08
2018-04-14T06:37:30.315Z,100827.02
2018-04-14T06:39:56.164Z,100833.48
2018-04-14T06:42:22.039Z,100825.97
2018-04-14T06:44:47.925Z,100829.03
2018-04-14T06:47:13.890Z,100833.70
2018-04-14T06:49:39.778Z,100832.75
2018-04-14T06:52:05.677Z,100836.22
2018-04-14T06:54:31.548Z,100849.72
2018-04-14T06:56:57.410Z,100845.30
2018-04-14T06:59:23.293Z,100847.96
2018-04-14T07:01:49.137Z,100856.28
2018-04-14T07:04:15.021Z,100856.72
2018-04-14T07:06:40.876Z,100857.59
2018-04-14T07:09:06.752Z,100862.02
2018-04-14T07:11:32.656Z,100862.48
2018-04-14T07:13:58.557Z,100873.03
2018-04-14T07:16:24.425Z,100864.23
2018-04-14T07:18:50.269Z,100875.22
2018-04-14T07:21:16.117Z,100868.66
2018-04-14T07:23:42.005Z,100880.52
2018-04-14T07:26:07.887Z,100884.45
2018-04-14T07:28:33.828Z,100890.58
2018-04-14T07:30:59.725Z,100884.89
2018-04-14T07:33:25.641Z,100889.78
2018-04-14T07:35:51.520Z,100894.66
2018-04-14T07:38:18.051Z,100894.30
2018-04-14T07:40:43.989Z,100901.03
2018-04-14T07:43:09.876Z,100902.75
2018-04-14T07:45:35.756Z,100907.23
2018-04-14T07:48:01.656Z,100907.53
2018-04-14T07:50:27.594Z,100907.53
2018-04-14T07:52:54.176Z,100911.33
2018-04-14T07:55:20.067Z,100913.89
2018-04-14T07:57:46.146Z,100912.84
2018-04-14T08:00:12.015Z,100916.64
2018-04-14T08:02:37.853Z,100918.65
2018-04-14T08:05:03.814Z,100919.89
2018-04-14T08:07:29.790Z,100922.78
2018-04-14T08:09:56.110Z,100923.84
2018-04-14T08:12:22.001Z,100923.33
2018-04-14T08:14:47.965Z,100920.22
2018-04-14T08:17:13.930Z,100923.10
2018-04-14T08:19:39.813Z,100930.00
2018-04-14T08:22:05.713Z,100927.15
2018-04-14T08:24:32.476Z,100928.78
2018-04-14T08:26:58.548Z,100930.58
2018-04-14T08:29:24.488Z,100932.98
2018-04-14T08:31:50.536Z,100944.55
2018-04-14T08:34:16.437Z,100941.97
2018-04-14T08:36:42.329Z,100931.96
2018-04-14T08:39:08.296Z,100938.94
2018-04-14T08:41:34.157Z,100938.91
2018-04-14T08:44:00.125Z,100938.22
2018-04-14T08:46:26.069Z,100937.13
2018-04-14T08:48:51.976Z,100930.52
2018-04-14T08:51:17.912Z,100938.48
2018-04-14T08:53:43.807Z,100945.25
2018-04-14T08:56:09.818Z,100944.28
2018-04-14T08:58:36.164Z,100943.77
2018-04-14T09:01:02.099Z,100943.78
2018-04-14T09:03:27.965Z,100950.95
2018-04-14T09:05:53.829Z,100942.30
2018-04-14T09:08:19.702Z,100954.05
2018-04-14T09:10:45.603Z,100956.92
2018-04-14T09:13:11.484Z,100955.68
2018-04-14T09:15:37.417Z,100962.84
2018-04-14T09:18:03.327Z,100964.52
2018-04-14T09:20:29.201Z,100968.77
2018-04-14T09:22:55.905Z,100967.23
2018-04-14T09:25:21.797Z,100991.24
2018-04-14T09:27:47.670Z,100975.31
2018-04-14T09:30:13.563Z,100967.50
2018-04-14T09:32:39.478Z,100981.17
2018-04-14T09:35:05.337Z,100970.93
2018-04-14T09:37:31.243Z,100970.39
2018-04-14T09:39:57.119Z,100969.98
2018-04-14T09:42:23.010Z,100971.40
2018-04-14T09:44:48.931Z,100973.50
2018-04-14T09:47:14.803Z,100975.80
2018-04-14T09:49:40.687Z,100978.47
2018-04-14T09:52:06.560Z,100979.19
2018-04-14T09:54:32.472Z,100978.97
2018-04-14T09:56:58.346Z,100990.59
2018-04-14T09:59:24.189Z,100994.89
2018-04-14T10:01:51.107Z,101004.48
2018-04-14T10:04:17.019Z,100998.28
2018-04-14T10:06:42.911Z,101004.65
2018-04-14T10:09:08.783Z,100997.19
2018-04-14T10:11:34.694Z,101018.37
2018-04-14T10:14:00.539Z,101001.72
2018-04-14T10:16:27.396Z,100998.55
2018-04-14T10:18:53.256Z,101008.58
2018-04-14T10:21:19.095Z,100998.24
2018-04-14T10:23:44.990Z,100998.77
2018-04-14T10:26:10.867Z,100994.15
2018-04-14T10:28:36.773Z,101000.47
2018-04-14T10:31:02.661Z,100998.13
2018-04-14T10:33:28.562Z,101010.31
2018-04-14T10:35:54.436Z,100996.72
2018-04-14T10:38:20.323Z,100993.93
2018-04-14T10:40:46.233Z,101002.53
2018-04-14T10:43:12.097Z,101000.83
2018-04-14T10:45:38.696Z,101008.55
2018-04-14T10:48:04.560Z,101016.71
2018-04-14T10:50:30.647Z,101008.16
2018-04-14T10:52:56.602Z,101014.08
2018-04-14T10:55:22.481Z,101016.41
2018-04-14T10:57:48.361Z,101020.52
2018-04-14T11:00:14.283Z,101027.98
2018-04-14T11:02:40.232Z,101027.47
2018-04-14T11:05:06.391Z,101036.58
2018-04-14T11:07:32.383Z,101039.78
2018-04-14T11:09:58.276Z,101038.63
2018-04-14T11:12:24.152Z,101053.17
2018-04-14T11:14:50.031Z,101053.72
2018-04-14T11:17:15.889Z,101050.83
2018-04-14T11:19:41.771Z,101053.58
2018-04-14T11:22:07.653Z,101047.27
2018-04-14T11:24:33.525Z,101045.69
2018-04-14T11:26:59.407Z,101040.97
2018-04-14T11:29:25.303Z,101056.72
2018-04-14T11:31:51.174Z,101053.38
2018-04-14T11:34:17.219Z,101050.94
2018-04-14T11:36:43.125Z,101050.27
2018-04-14T11:39:09.033Z,101065.22
2018-04-14T11:41:34.909Z,101047.70
2018-04-14T11:44:00.777Z,101059.12
2018-04-14T11:46:27.281Z,101060.56
2018-04-14T11:48:53.130Z,101059.41
2018-04-14T11:51:19.013Z,101071.81
2018-04-14T11:53:44.923Z,101069.66
2018-04-14T11:56:10.843Z,101062.03
2018-04-14T11:58:36.738Z,101083.96
2018-04-14T12:01:02.622Z,101082.20
2018-04-14T12:03:28.480Z,101073.56
2018-04-14T12:06:09.356Z,101072.38
2018-04-14T12:08:35.224Z,101081.16
2018-04-14T12:11:01.111Z,101069.91
2018-04-14T12:13:27.238Z,101076.62
2018-04-14T12:15:53.193Z,101072.31
2018-04-14T12:18:19.070Z,101086.75
2018-04-14T12:20:45.779Z,101084.55
2018-04-14T12:23:11.625Z,101079.53
2018-04-14T12:25:37.480Z,101083.73
2018-04-14T12:28:04.480Z,101095.05
2018-04-14T12:30:30.375Z,101089.30
2018-04-14T12:32:56.265Z,101090.90
2018-04-14T12:35:22.161Z,101089.98
2018-04-14T12:37:48.114Z,101086.83
2018-04-14T12:40:13.998Z,101095.05
2018-04-14T12:42:40.846Z,101090.75
2018-04-14T12:45:06.752Z,101085.70
2018-04-14T12:47:32.632Z,101089.03
2018-04-14T12:49:58.488Z,101108.16
2018-04-14T12:52:24.352Z,101096.14
2018-04-14T12:54:50.220Z,101091.41
2018-04-14T12:57:16.136Z,101099.08
2018-04-14T12:59:43.028Z,101094.69
2018-04-14T13:02:08.928Z,101089.80
2018-04-14T13:04:34.805Z,101088.92
2018-04-14T13:07:00.670Z,101080.64
2018-04-14T13:09:26.613Z,101088.61
2018-04-14T13:11:52.484Z,101093.14
2018-04-14T13:14:18.363Z,101086.34
2018-04-14T13:16:44.211Z,101080.83
2018-04-14T13:19:10.126Z,101097.24
2018-04-14T13:21:35.950Z,101091.55
2018-04-14T13:24:01.835Z,101082.39
2018-04-14T13:26:27.701Z,101084.97
2018-04-14T13:28:53.571Z,101089.52
2018-04-14T13:31:19.462Z,101089.33
2018-04-14T13:33:45.343Z,101080.66
2018-04-14T13:36:11.183Z,101081.24
2018-04-14T13:38:37.042Z,101072.40
2018-04-14T13:41:02.937Z,101081.05
2018-04-14T13:43:28.796Z,101074.11
2018-04-14T13:45:54.772Z,101084.82
2018-04-14T13:48:20.662Z,101080.39
2018-04-14T13:50:46.544Z,101076.42
2018-04-14T13:53:12.387Z,101075.89
2018-04-14T13:55:38.224Z,101078.05
2018-04-14T13:58:04.075Z,101070.02
2018-04-14T14:00:29.939Z,101089.55
2018-04-14T14:02:55.858Z,101075.23
2018-04-14T14:05:21.746Z,101076.36
2018-04-14T14:07:47.681Z,101063.22
2018-04-14T14:10:13.604Z,101075.38
2018-04-14T14:12:40.362Z,101078.47
2018-04-14T14:15:06.223Z,101073.75
2018-04-14T14:17:32.106Z,101066.49
2018-04-14T14:19:57.993Z,101074.41
2018-04-14T14:22:23.835Z,101078.53
2018-04-14T14:24:49.719Z,101080.55
2018-04-14T14:27:15.591Z,101077.56
2018-04-14T14:29:41.435Z,101074.19
2018-04-14T14:32:07.331Z,101062.75
2018-04-14T14:34:33.205Z,101082.06
2018-04-14T14:36:59.062Z,101075.23
2018-04-14T14:39:24.907Z,101076.89
2018-04-14T14:41:50.812Z,101081.78
2018-04-14T14:44:16.688Z,101073.25
2018-04-14T14:46:42.601Z,101074.62
2018-04-14T14:49:08.468Z,101076.64
2018-04-14T14:51:34.373Z,101074.19
2018-04-14T14:54:00.255Z,101075.30
2018-04-14T14:56:26.139Z,101075.64
2018-04-14T14:58:52.005Z,101063.44
2018-04-14T15:01:17.893Z,101067.04
2018-04-14T15:03:44.408Z,101070.20
2018-04-14T15:06:10.308Z,101067.05
2018-04-14T15:08:36.335Z,101060.64
2018-04-14T15:11:02.220Z,101076.25
2018-04-14T15:13:28.101Z,101070.03
2018-04-14T15:15:53.955Z,101073.14
2018-04-14T15:18:19.820Z,101072.24
2018-04-14T15:20:45.693Z,101071.58
2018-04-14T15:23:11.561Z,101068.91
2018-04-14T15:25:37.521Z,101068.52
2018-04-14T15:28:03.447Z,101070.30
2018-04-14T15:30:29.325Z,101074.70
2018-04-14T15:32:55.178Z,101068.80
2018-04-14T15:35:21.066Z,101073.38
2018-04-14T15:37:47.454Z,101074.44
2018-04-14T15:40:13.313Z,101087.34
2018-04-14T15:42:39.187Z,101076.80
2018-04-14T15:45:05.054Z,101079.64
2018-04-14T15:47:30.946Z,101077.02
2018-04-14T15:49:56.807Z,101086.09
2018-04-14T15:52:22.696Z,101075.62
2018-04-14T15:54:48.600Z,101087.33
2018-04-14T15:57:14.441Z,101091.89
2018-04-14T15:59:40.337Z,101097.28
2018-04-14T16:02:07.144Z,101096.41
2018-04-14T16:04:33.033Z,101096.25
2018-04-14T16:06:58.911Z,101092.06
2018-04-14T16:09:24.905Z,101095.01
2018-04-14T16:11:51.449Z,101098.42
2018-04-14T16:14:17.330Z,101108.00
2018-04-14T16:16:43.297Z,101101.37
2018-04-14T16:19:09.178Z,101103.12
2018-04-14T16:21:35.062Z,101100.64
2018-04-14T16:24:00.931Z,101099.41
2018-04-14T16:26:26.823Z,101098.13
2018-04-14T16:28:52.674Z,101102.59
2018-04-14T16:31:18.578Z,101099.37
2018-04-14T16:33:44.474Z,101093.70
2018-04-14T16:36:11.197Z,101093.63
2018-04-14T16:38:37.064Z,101093.97
2018-04-14T16:41:02.909Z,101091.66
2018-04-14T16:43:28.799Z,101090.02
2018-04-14T16:45:54.684Z,101083.78
2018-04-14T16:48:21.485Z,101087.94
2018-04-14T16:50:47.394Z,101090.66
2018-04-14T16:53:13.880Z,101094.77
2018-04-14T16:55:39.769Z,101086.80
2018-04-14T16:58:05.792Z,101087.28
2018-04-14T17:00:32.510Z,101084.25
2018-04-14T17:02:58.383Z,101085.23
2018-04-14T17:05:24.293Z,101093.59
2018-04-14T17:07:50.167Z,101096.31
2018-04-14T17:10:16.096Z,101102.95
2018-04-14T17:12:42.947Z,101099.27
2018-04-14T17:15:08.867Z,101095.82
2018-04-14T17:17:34.754Z,101100.11
2018-04-14T17:20:00.625Z,101096.97
2018-04-14T17:22:26.524Z,101096.75
2018-04-14T17:24:52.373Z,101095.64
2018-04-14T17:27:18.262Z,101104.28
2018-04-14T17:29:44.126Z,101102.48
2018-04-14T17:32:10.054Z,101108.33
2018-04-14T17:34:35.903Z,101110.80
2018-04-14T17:37:01.767Z,101117.09
2018-04-14T17:39:27.708Z,101120.48
2018-04-14T17:41:53.617Z,101119.56
2018-04-14T17:44:19.513Z,101124.78
2018-04-14T17:46:45.397Z,101125.80
2018-04-14T17:49:11.279Z,101133.91
2018-04-14T17:51:37.170Z,101140.13
2018-04-14T17:54:03.072Z,101137.49
2018-04-14T17:56:28.973Z,101143.31
2018-04-14T17:58:54.879Z,101150.13
2018-04-14T18:01:20.810Z,101156.77
2018-04-14T18:03:46.719Z,101161.65
2018-04-14T18:06:12.583Z,101164.02
2018-04-14T18:08:38.445Z,101167.83
2018-04-14T18:11:04.333Z,101170.41
2018-04-14T18:13:31.259Z,101167.17
2018-04-14T18:15:57.163Z,101176.17
2018-04-14T18:18:23.187Z,101182.33
2018-04-14T18:20:49.133Z,101187.65
2018-04-14T18:23:15.078Z,101186.92
2018-04-14T18:25:40.998Z,101185.73
2018-04-14T18:28:06.864Z,101186.88
2018-04-14T18:30:32.772Z,101181.20
2018-04-14T18:32:58.640Z,101190.79
2018-04-14T18:35:24.508Z,101194.28
2018-04-14T18:37:50.408Z,101194.09
2018-04-14T18:40:16.289Z,101194.25
2018-04-14T18:42:42.175Z,101206.28
2018-04-14T18:45:08.929Z,101215.21
2018-04-14T18:47:34.830Z,101210.23
2018-04-14T18:50:00.686Z,101208.70
2018-04-14T18:52:26.581Z,101221.67
2018-04-14T18:54:52.559Z,101225.95
2018-04-14T18:57:18.452Z,101224.34
2018-04-14T18:59:44.373Z,101219.00
2018-04-14T19:02:11.107Z,101221.41
2018-04-14T19:04:37.961Z,101218.27
2018-04-14T19:07:03.884Z,101216.00
2018-04-14T19:09:30.305Z,101221.88
2018-04-14T19:11:56.275Z,101225.94
2018-04-14T19:14:22.259Z,101228.53
2018-04-14T19:16:48.234Z,101223.91
2018-04-14T19:19:14.221Z,101225.15
2018-04-14T19:21:40.164Z,101232.86
2018-04-14T19:24:06.854Z,101229.78
2018-04-14T19:26:32.765Z,101224.88
2018-04-14T19:28:58.690Z,101225.69
2018-04-14T19:31:24.662Z,101225.75
2018-04-14T19:33:50.727Z,101236.83
2018-04-14T19:36:16.642Z,101239.68
2018-04-14T19:38:42.558Z,101237.33
2018-04-14T19:41:09.045Z,101244.23
2018-04-14T19:43:35.000Z,101243.85
2018-04-14T19:46:00.971Z,101243.73
2018-04-14T19:48:27.006Z,101237.57
2018-04-14T19:50:52.916Z,101230.22
2018-04-14T19:53:18.861Z,101238.91
2018-04-14T19:55:44.823Z,101239.19
2018-04-14T19:58:10.871Z,101232.92
2018-04-14T20:00:36.892Z,101238.41
2018-04-14T20:03:02.813Z,101232.72
2018-04-14T20:05:28.755Z,101230.55
2018-04-14T20:07:54.691Z,101224.89
2018-04-14T20:10:20.595Z,101222.73
2018-04-14T20:12:46.450Z,101225.47
2018-04-14T20:15:12.308Z,101228.09
2018-04-14T20:17:38.211Z,101226.59
2018-04-14T20:20:04.109Z,101230.71
2018-04-14T20:22:30.739Z,101226.62
2018-04-14T20:24:56.697Z,101226.13
2018-04-14T20:27:22.613Z,101228.91
2018-04-14T20:29:48.460Z,101230.27
2018-04-14T20:32:15.381Z,101217.08
2018-04-14T20:34:41.319Z,101215.80
2018-04-14T20:37:08.089Z,101215.04
2018-04-14T20:39:34.961Z,101216.36
2018-04-14T20:42:00.951Z,101226.92
2018-04-14T20:44:27.460Z,101227.91
2018-04-14T20:46:53.393Z,101221.78
2018-04-14T20:49:19.332Z,101225.18
2018-04-14T20:51:45.205Z,101222.23
2018-04-14T20:54:11.118Z,101214.83
2018-04-14T20:56:36.963Z,101215.44
2018-04-14T20:59:02.847Z,101225.03
2018-04-14T21:01:28.718Z,101223.92
2018-04-14T21:03:54.587Z,101229.98
2018-04-14T21:06:20.485Z,101238.78
2018-04-14T21:08:46.417Z,101233.58
2018-04-14T21:11:12.621Z,101226.54
2018-04-14T21:13:38.483Z,101234.45
2018-04-14T21:16:04.429Z,101223.89
2018-04-14T21:18:30.294Z,101226.09
2018-04-14T21:20:56.829Z,101225.36
2018-04-14T21:23:22.734Z,101224.84
2018-04-14T21:25:48.614Z,101229.16
2018-04-14T21:28:14.517Z,101221.34
2018-04-14T21:30:40.394Z,101215.22
2018-04-14T21:33:06.305Z,101222.73
2018-04-14T21:35:32.193Z,101222.28
2018-04-14T21:37:58.103Z,101214.95
2018-04-14T21:40:23.960Z,101222.30
2018-04-14T21:42:49.882Z,101227.99
2018-04-14T21:45:15.751Z,101224.91
2018-04-14T21:47:41.648Z,101225.92
2018-04-14T21:50:07.518Z,101220.53
2018-04-14T21:52:33.391Z,101215.33
2018-04-14T21:54:59.290Z,101215.31
2018-04-14T21:57:25.151Z,101208.41
2018-04-14T21:59:51.070Z,101205.00
2018-04-14T22:02:16.912Z,101210.37
2018-04-14T22:04:42.778Z,101207.30
2018-04-14T22:07:08.662Z,101209.61
2018-04-14T22:09:34.506Z,101201.80
2018-04-14T22:12:00.404Z,101200.14
2018-04-14T22:14:32.367Z,101187.48
2018-04-14T22:16:58.281Z,101186.69
2018-04-14T22:19:24.142Z,101186.23
2018-04-14T22:21:50.027Z,101197.23
2018-04-14T22:24:15.902Z,101202.09
2018-04-14T22:26:41.743Z,101196.45
2018-04-14T22:29:07.586Z,101194.75
2018-04-14T22:31:33.451Z,101189.98
2018-04-14T22:33:59.290Z,101188.98
2018-04-14T22:36:25.155Z,101186.04
2018-04-14T22:38:51.018Z,101180.75
2018-04-14T22:41:16.875Z,101175.96
2018-04-14T22:43:42.782Z,101167.34
2018-04-14T22:46:08.632Z,101173.10
2018-04-14T22:48:34.518Z,101177.47
2018-04-14T22:51:00.351Z,101176.22
2018-04-14T22:53:26.211Z,101177.53
2018-04-14T22:55:52.083Z,101171.55
2018-04-14T22:58:17.923Z,101174.97
2018-04-14T23:00:43.773Z,101168.44
2018-04-14T23:03:09.636Z,101168.20
2018-04-14T23:05:35.482Z,101172.98
2018-04-14T23:08:01.377Z,101163.83
2018-04-14T23:10:27.208Z,101169.07
2018-04-14T23:12:53.057Z,101165.16
2018-04-14T23:15:18.972Z,101159.19
2018-04-14T23:17:44.798Z,101164.09
2018-04-14T23:20:10.671Z,101163.73
2018-04-14T23:22:36.543Z,101160.27
2018-04-14T23:25:02.374Z,101160.66
2018-04-14T23:27:28.218Z,101161.12
2018-04-14T23:29:54.079Z,101156.39
2018-04-14T23:32:19.940Z,101152.42
2018-04-14T23:34:45.810Z,101160.84
2018-04-14T23:37:11.646Z,101155.11
2018-04-14T23:39:37.485Z,101147.33
2018-04-14T23:42:03.342Z,101143.38
2018-04-14T23:44:29.186Z,101134.39
2018-04-14T23:46:55.054Z,101137.01
2018-04-14T23:49:20.891Z,101137.96
2018-04-14T23:51:46.752Z,101135.29
2018-04-14T23:54:12.612Z,101135.71
2018-04-14T23:59:31.263Z,101124.70
